createdAt,value
2018-01-30T05:00:33.857Z,3.84
2018-01-30T05:00:59.346Z,3.78
2018-01-30T05:01:24.825Z,3.86
2018-01-30T05:01:50.324Z,3.83
2018-01-30T05:02:15.815Z,3.83
2018-01-30T05:03:24.486Z,3.83
2018-01-30T05:03:49.999Z,3.81
2018-01-30T05:04:15.458Z,3.88
2018-01-30T05:04:40.907Z,3.92
2018-01-30T05:05:06.398Z,3.91
2018-01-30T05:05:31.874Z,3.88
2018-01-30T05:05:57.373Z,3.84
2018-01-30T05:06:22.889Z,3.95
2018-01-30T05:06:48.355Z,3.91
2018-01-30T05:07:13.901Z,3.95
2018-01-30T05:07:39.415Z,3.99
2018-01-30T05:08:04.903Z,3.98
2018-01-30T05:08:30.411Z,3.94
2018-01-30T05:08:55.910Z,3.96
2018-01-30T05:10:04.603Z,3.98
2018-01-30T05:10:30.137Z,3.96
2018-01-30T05:10:55.605Z,3.99
2018-01-30T05:11:21.066Z,4.06
2018-01-30T05:11:46.552Z,3.98
2018-01-30T05:12:55.245Z,4.08
2018-01-30T05:13:20.755Z,4.02
2018-01-30T05:13:46.275Z,4.06
2018-01-30T05:14:11.780Z,3.99
2018-01-30T05:14:37.228Z,4.01
2018-01-30T05:15:02.688Z,4.02
2018-01-30T05:16:11.415Z,4.02
2018-01-30T05:16:36.876Z,4.12
2018-01-30T05:17:02.526Z,4.1
2018-01-30T05:17:28.013Z,4.1
2018-01-30T05:17:53.488Z,4.13
2018-01-30T05:18:18.982Z,4.13
2018-01-30T05:18:44.470Z,4.19
2018-01-30T05:19:10.010Z,4.16
2018-01-30T05:19:35.515Z,4.16
2018-01-30T05:20:23.896Z,4.12
2018-01-30T05:20:49.333Z,4.16
2018-01-30T05:21:14.860Z,4.12
2018-01-30T05:21:40.348Z,4.17
2018-01-30T05:22:05.807Z,4.14
2018-01-30T05:22:31.329Z,4.23
2018-01-30T05:22:56.808Z,4.22
2018-01-30T05:23:22.326Z,4.24
2018-01-30T05:23:47.844Z,4.14
2018-01-30T05:24:13.292Z,4.24
2018-01-30T05:24:38.799Z,4.22
2018-01-30T05:25:04.271Z,4.24
2018-01-30T05:26:07.881Z,4.17
2018-01-30T05:26:33.350Z,4.17
2018-01-30T05:26:58.941Z,4.24
2018-01-30T05:27:24.432Z,4.19
2018-01-30T05:27:49.884Z,4.1
2018-01-30T05:28:15.296Z,4.22
2018-01-30T05:28:40.836Z,4.2
2018-01-30T05:29:06.250Z,4.13
2018-01-30T05:29:31.688Z,4.22
2018-01-30T05:29:57.157Z,4.22
2018-01-30T05:30:22.657Z,4.13
2018-01-30T05:30:48.183Z,4.23
2018-01-30T05:31:13.689Z,4.13
2018-01-30T05:31:39.208Z,4.22
2018-01-30T05:32:04.685Z,4.16
2018-01-30T05:32:30.178Z,4.24
2018-01-30T05:32:55.664Z,4.2
2018-01-30T05:33:54.146Z,4.16
2018-01-30T05:34:19.652Z,4.13
2018-01-30T05:34:45.141Z,4.17
2018-01-30T05:35:10.629Z,4.24
2018-01-30T05:35:36.166Z,4.2
2018-01-30T05:36:01.686Z,4.17
2018-01-30T05:36:27.228Z,4.23
2018-01-30T05:36:52.743Z,4.22
2018-01-30T05:37:18.242Z,4.22
2018-01-30T05:37:43.736Z,4.14
2018-01-30T05:38:32.026Z,4.17
2018-01-30T05:38:57.517Z,4.12
2018-01-30T05:39:22.997Z,4.17
2018-01-30T05:39:48.501Z,4.17
2018-01-30T05:40:14.013Z,4.16
2018-01-30T05:40:39.478Z,4.23
2018-01-30T05:41:04.967Z,4.19
2018-01-30T05:41:30.437Z,4.17
2018-01-30T05:41:55.925Z,4.16
2018-01-30T05:42:21.451Z,4.2
2018-01-30T05:42:46.952Z,4.16
2018-01-30T05:43:12.435Z,4.16
2018-01-30T05:43:37.944Z,4.17
2018-01-30T05:44:03.417Z,4.19
2018-01-30T05:44:28.965Z,4.19
2018-01-30T05:44:54.416Z,4.14
2018-01-30T05:45:19.972Z,4.22
2018-01-30T05:45:45.451Z,4.17
2018-01-30T05:46:10.962Z,4.17
2018-01-30T05:46:36.442Z,4.22
2018-01-30T05:47:01.954Z,4.1
2018-01-30T05:47:27.404Z,4.13
2018-01-30T05:47:52.900Z,4.14
2018-01-30T05:48:18.382Z,4.14
2018-01-30T05:48:43.847Z,4.17
2018-01-30T05:49:09.316Z,4.17
2018-01-30T05:49:34.795Z,4.14
2018-01-30T05:50:00.293Z,4.06
2018-01-30T05:50:25.808Z,4.12
2018-01-30T05:50:51.318Z,4.17
2018-01-30T05:51:16.882Z,4.14
2018-01-30T05:51:42.403Z,4.1
2018-01-30T05:52:07.887Z,4.14
2018-01-30T05:52:33.399Z,4.19
2018-01-30T05:52:58.882Z,4.13
2018-01-30T05:53:24.380Z,4.13
2018-01-30T05:53:49.844Z,4.12
2018-01-30T05:54:15.326Z,4.1
2018-01-30T05:54:40.867Z,4.12
2018-01-30T05:55:06.370Z,3.98
2018-01-30T05:55:31.868Z,4.12
2018-01-30T05:55:57.376Z,4.05
2018-01-30T05:56:22.904Z,3.99
2018-01-30T05:56:48.438Z,3.96
2018-01-30T05:57:13.895Z,4.01
2018-01-30T05:57:39.458Z,4.01
2018-01-30T05:58:04.998Z,4.01
2018-01-30T05:58:30.473Z,4.08
2018-01-30T05:58:55.954Z,4.02
2018-01-30T05:59:21.424Z,4.13
2018-01-30T05:59:46.932Z,3.99
2018-01-30T06:00:12.439Z,4.04
2018-01-30T06:00:37.915Z,4.05
2018-01-30T06:01:03.436Z,4.05
2018-01-30T06:01:29.022Z,3.96
2018-01-30T06:01:54.470Z,3.91
2018-01-30T06:02:19.959Z,3.88
2018-01-30T06:02:45.450Z,3.88
2018-01-30T06:03:10.949Z,3.92
2018-01-30T06:03:36.447Z,3.88
2018-01-30T06:04:01.942Z,3.84
2018-01-30T06:04:27.842Z,3.87
2018-01-30T06:04:53.307Z,3.88
2018-01-30T06:05:18.826Z,3.86
2018-01-30T06:05:44.272Z,3.84
2018-01-30T06:06:09.767Z,3.81
2018-01-30T06:06:35.359Z,3.88
2018-01-30T06:07:00.746Z,3.86
2018-01-30T06:07:26.215Z,3.87
2018-01-30T06:07:51.687Z,3.87
2018-01-30T06:08:17.234Z,3.86
2018-01-30T06:08:42.724Z,3.84
2018-01-30T06:09:08.291Z,3.8
2018-01-30T06:09:33.762Z,3.78
2018-01-30T06:09:59.283Z,3.76
2018-01-30T06:10:24.734Z,3.84
2018-01-30T06:10:50.280Z,3.83
2018-01-30T06:11:15.725Z,3.83
2018-01-30T06:11:41.188Z,3.83
2018-01-30T06:12:06.694Z,3.73
2018-01-30T06:12:32.239Z,3.8
2018-01-30T06:12:57.795Z,3.74
2018-01-30T06:13:23.305Z,3.7
2018-01-30T06:13:48.753Z,3.78
2018-01-30T06:14:14.263Z,3.69
2018-01-30T06:14:39.721Z,3.76
2018-01-30T06:15:05.199Z,3.76
2018-01-30T06:15:30.699Z,3.74
2018-01-30T06:15:56.199Z,3.63
2018-01-30T06:16:21.693Z,3.63
2018-01-30T06:16:47.172Z,3.65
2018-01-30T06:17:12.640Z,3.68
2018-01-30T06:17:38.143Z,3.63
2018-01-30T06:18:03.596Z,3.73
2018-01-30T06:18:29.107Z,3.58
2018-01-30T06:18:54.623Z,3.66
2018-01-30T06:19:20.136Z,3.62
2018-01-30T06:19:45.629Z,3.62
2018-01-30T06:20:11.196Z,3.68
2018-01-30T06:20:36.701Z,3.58
2018-01-30T06:21:02.231Z,3.66
2018-01-30T06:21:27.746Z,3.55
2018-01-30T06:21:53.233Z,3.65
2018-01-30T06:22:18.720Z,3.55
2018-01-30T06:22:44.208Z,3.5
2018-01-30T06:23:09.709Z,3.5
2018-01-30T06:23:35.217Z,3.5
2018-01-30T06:24:00.691Z,3.55
2018-01-30T06:24:26.210Z,3.55
2018-01-30T06:25:15.535Z,3.5
2018-01-30T06:25:41.048Z,3.55
2018-01-30T06:26:06.522Z,3.56
2018-01-30T06:26:32.000Z,3.58
2018-01-30T06:26:57.597Z,3.53
2018-01-30T06:27:23.094Z,3.63
2018-01-30T06:27:48.588Z,3.6
2018-01-30T06:28:14.047Z,3.51
2018-01-30T06:28:39.593Z,3.51
2018-01-30T06:29:05.024Z,3.55
2018-01-30T06:29:30.557Z,3.55
2018-01-30T06:29:56.055Z,3.59
2018-01-30T06:30:21.577Z,3.58
2018-01-30T06:30:47.089Z,3.55
2018-01-30T06:31:12.622Z,3.55
2018-01-30T06:32:06.040Z,3.55
2018-01-30T06:32:31.512Z,3.53
2018-01-30T06:32:57.021Z,3.58
2018-01-30T06:33:22.519Z,3.55
2018-01-30T06:33:48.007Z,3.59
2018-01-30T06:34:13.530Z,3.45
2018-01-30T06:35:12.037Z,3.55
2018-01-30T06:35:37.524Z,3.5
2018-01-30T06:36:03.025Z,3.53
2018-01-30T06:36:28.540Z,3.55
2018-01-30T06:36:54.039Z,3.47
2018-01-30T06:37:19.558Z,3.48
2018-01-30T06:37:45.057Z,3.5
2018-01-30T06:38:10.616Z,3.44
2018-01-30T06:38:36.083Z,3.51
2018-01-30T06:39:01.602Z,3.44
2018-01-30T06:39:27.096Z,3.42
2018-01-30T06:39:52.609Z,3.44
2018-01-30T06:40:18.116Z,3.47
2018-01-30T06:40:43.593Z,3.5
2018-01-30T06:41:37.030Z,3.41
2018-01-30T06:42:02.596Z,3.36
2018-01-30T06:42:28.130Z,3.42
2018-01-30T06:42:53.621Z,3.44
2018-01-30T06:43:19.106Z,3.44
2018-01-30T06:44:22.650Z,3.45
2018-01-30T06:44:48.157Z,3.36
2018-01-30T06:45:13.659Z,3.37
2018-01-30T06:45:39.143Z,3.36
2018-01-30T06:46:33.402Z,3.37
2018-01-30T06:46:58.890Z,3.29
2018-01-30T06:47:24.391Z,3.41
2018-01-30T06:47:49.898Z,3.37
2018-01-30T06:48:15.403Z,3.41
2018-01-30T06:48:40.923Z,3.4
2018-01-30T06:49:06.391Z,3.37
2018-01-30T06:49:31.867Z,3.37
2018-01-30T06:49:57.347Z,3.4
2018-01-30T06:50:22.873Z,3.4
2018-01-30T06:50:48.352Z,3.26
2018-01-30T06:51:13.855Z,3.28
2018-01-30T06:52:02.142Z,3.26
2018-01-30T06:52:27.632Z,3.44
2018-01-30T06:52:53.109Z,3.31
2018-01-30T06:53:18.608Z,3.36
2018-01-30T06:53:44.087Z,3.37
2018-01-30T06:54:09.568Z,3.32
2018-01-30T06:54:35.072Z,3.31
2018-01-30T06:55:00.584Z,3.37
2018-01-30T06:55:26.059Z,3.44
2018-01-30T06:55:51.553Z,3.31
2018-01-30T06:56:17.084Z,3.28
2018-01-30T06:57:20.693Z,3.31
2018-01-30T06:57:46.197Z,3.41
2018-01-30T06:58:11.674Z,3.32
2018-01-30T06:58:37.187Z,3.32
2018-01-30T06:59:02.645Z,3.32
2018-01-30T06:59:28.161Z,3.32
2018-01-30T06:59:53.672Z,3.34
2018-01-30T07:00:19.166Z,3.29
2018-01-30T07:00:44.659Z,3.36
2018-01-30T07:01:10.198Z,3.37
2018-01-30T07:01:35.729Z,3.31
2018-01-30T07:02:01.254Z,3.34
2018-01-30T07:02:26.723Z,3.34
2018-01-30T07:02:52.252Z,3.41
2018-01-30T07:03:17.735Z,3.36
2018-01-30T07:03:43.298Z,3.34
2018-01-30T07:04:08.786Z,3.32
2018-01-30T07:04:34.295Z,3.37
2018-01-30T07:04:59.764Z,3.32
2018-01-30T07:05:25.299Z,3.29
2018-01-30T07:05:50.777Z,3.25
2018-01-30T07:06:16.247Z,3.25
2018-01-30T07:06:41.719Z,3.26
2018-01-30T07:07:07.203Z,3.32
2018-01-30T07:07:32.693Z,3.4
2018-01-30T07:07:58.163Z,3.32
2018-01-30T07:08:23.663Z,3.4
2018-01-30T07:08:49.197Z,3.34
2018-01-30T07:09:14.710Z,3.31
2018-01-30T07:09:40.216Z,3.32
2018-01-30T07:10:05.719Z,3.32
2018-01-30T07:10:31.211Z,3.26
2018-01-30T07:10:56.710Z,3.34
2018-01-30T07:11:22.174Z,3.37
2018-01-30T07:11:47.694Z,3.37
2018-01-30T07:12:13.187Z,3.31
2018-01-30T07:12:38.685Z,3.32
2018-01-30T07:13:04.198Z,3.32
2018-01-30T07:13:29.682Z,3.36
2018-01-30T07:13:55.188Z,3.31
2018-01-30T07:14:58.816Z,3.36
2018-01-30T07:15:24.299Z,3.31
2018-01-30T07:15:49.792Z,3.34
2018-01-30T07:16:15.384Z,3.37
2018-01-30T07:16:40.907Z,3.36
2018-01-30T07:17:06.374Z,3.26
2018-01-30T07:17:31.910Z,3.23
2018-01-30T07:17:57.411Z,3.23
2018-01-30T07:18:22.903Z,3.31
2018-01-30T07:18:48.422Z,3.34
2018-01-30T07:19:13.939Z,3.34
2018-01-30T07:19:39.422Z,3.36
2018-01-30T07:20:04.909Z,3.34
2018-01-30T07:20:30.393Z,3.28
2018-01-30T07:21:23.792Z,3.29
2018-01-30T07:21:49.286Z,3.26
2018-01-30T07:22:14.788Z,3.29
2018-01-30T07:22:40.280Z,3.37
2018-01-30T07:23:05.780Z,3.37
2018-01-30T07:23:31.271Z,3.31
2018-01-30T07:24:29.816Z,3.36
2018-01-30T07:24:55.280Z,3.37
2018-01-30T07:25:20.813Z,3.42
2018-01-30T07:25:46.275Z,3.25
2018-01-30T07:26:11.943Z,3.42
2018-01-30T07:26:37.633Z,3.25
2018-01-30T07:27:03.082Z,3.37
2018-01-30T07:27:28.596Z,3.28
2018-01-30T07:27:54.145Z,3.42
2018-01-30T07:28:19.636Z,3.37
2018-01-30T07:28:45.120Z,3.45
2018-01-30T07:29:10.584Z,3.44
2018-01-30T07:29:36.106Z,3.4
2018-01-30T07:30:01.689Z,3.42
2018-01-30T07:30:27.168Z,3.42
2018-01-30T07:30:52.642Z,3.44
2018-01-30T07:31:18.162Z,3.56
2018-01-30T07:31:43.711Z,3.45
2018-01-30T07:32:09.207Z,3.51
2018-01-30T07:32:34.740Z,3.5
2018-01-30T07:33:00.273Z,3.45
2018-01-30T07:33:25.769Z,3.55
2018-01-30T07:33:51.289Z,3.5
2018-01-30T07:35:01.589Z,3.5
2018-01-30T07:35:27.077Z,3.42
2018-01-30T07:35:52.566Z,3.55
2018-01-30T07:36:18.044Z,3.51
2018-01-30T07:36:43.516Z,3.55
2018-01-30T07:37:31.799Z,3.47
2018-01-30T07:37:57.290Z,3.48
2018-01-30T07:38:22.774Z,3.42
2018-01-30T07:38:48.287Z,3.45
2018-01-30T07:39:13.787Z,3.42
2018-01-30T07:39:39.286Z,3.48
2018-01-30T07:40:04.811Z,3.45
2018-01-30T07:40:30.303Z,3.51
2018-01-30T07:40:55.842Z,3.45
2018-01-30T07:41:21.349Z,3.44
2018-01-30T07:41:46.834Z,3.51
2018-01-30T07:42:12.346Z,3.42
2018-01-30T07:42:37.842Z,3.42
2018-01-30T07:43:03.344Z,3.4
2018-01-30T07:43:28.875Z,3.45
2018-01-30T07:44:27.400Z,3.41
2018-01-30T07:44:52.884Z,3.51
2018-01-30T07:45:18.368Z,3.42
2018-01-30T07:45:43.859Z,3.42
2018-01-30T07:46:09.368Z,3.5
2018-01-30T07:46:34.879Z,3.45
2018-01-30T07:47:00.368Z,3.51
2018-01-30T07:47:25.839Z,3.42
2018-01-30T07:47:51.335Z,3.41
2018-01-30T07:48:16.823Z,3.45
2018-01-30T07:48:42.312Z,3.42
2018-01-30T07:49:07.837Z,3.53
2018-01-30T07:50:11.444Z,3.48
2018-01-30T07:50:36.965Z,3.45
2018-01-30T07:51:02.464Z,3.47
2018-01-30T07:51:27.936Z,3.48
2018-01-30T07:51:53.427Z,3.42
2018-01-30T07:52:18.974Z,3.44
2018-01-30T07:52:44.400Z,3.48
2018-01-30T07:53:10.169Z,3.47
2018-01-30T07:53:35.709Z,3.58
2018-01-30T07:54:01.195Z,3.55
2018-01-30T07:54:26.726Z,3.47
2018-01-30T07:54:52.215Z,3.5
2018-01-30T07:55:17.687Z,3.55
2018-01-30T07:55:43.182Z,3.55
2018-01-30T07:56:36.601Z,3.55
2018-01-30T07:57:02.108Z,3.58
2018-01-30T07:57:27.559Z,3.51
2018-01-30T07:57:53.050Z,3.59
2018-01-30T07:58:18.506Z,3.6
2018-01-30T07:58:44.038Z,3.65
2018-01-30T07:59:09.546Z,3.59
2018-01-30T07:59:35.137Z,3.74
2018-01-30T08:00:00.597Z,3.63
2018-01-30T08:00:26.124Z,3.65
2018-01-30T08:00:51.629Z,3.62
2018-01-30T08:01:17.092Z,3.69
2018-01-30T08:02:20.740Z,3.68
2018-01-30T08:02:46.258Z,3.74
2018-01-30T08:03:11.719Z,3.76
2018-01-30T08:03:37.253Z,3.8
2018-01-30T08:04:02.737Z,3.86
2018-01-30T08:04:28.267Z,3.83
2018-01-30T08:04:53.763Z,3.84
2018-01-30T08:05:19.271Z,3.91
2018-01-30T08:05:44.739Z,3.87
2018-01-30T08:06:10.226Z,3.91
2018-01-30T08:06:35.709Z,3.87
2018-01-30T08:07:01.202Z,3.88
2018-01-30T08:07:26.676Z,3.96
2018-01-30T08:07:52.189Z,3.96
2018-01-30T08:08:17.733Z,4.04
2018-01-30T08:08:43.226Z,4.06
2018-01-30T08:09:08.682Z,4.04
2018-01-30T08:09:34.160Z,4.01
2018-01-30T08:09:59.695Z,3.99
2018-01-30T08:10:25.179Z,4.02
2018-01-30T08:10:50.639Z,4.08
2018-01-30T08:11:16.177Z,4.1
2018-01-30T08:11:41.740Z,4.16
2018-01-30T08:12:07.207Z,4.19
2018-01-30T08:12:32.677Z,4.17
2018-01-30T08:12:58.197Z,4.2
2018-01-30T08:13:23.678Z,4.16
2018-01-30T08:13:49.183Z,4.16
2018-01-30T08:14:14.659Z,4.24
2018-01-30T08:14:40.152Z,4.22
2018-01-30T08:15:05.659Z,4.23
2018-01-30T08:16:04.171Z,4.34
2018-01-30T08:16:29.650Z,4.31
2018-01-30T08:16:55.149Z,4.32
2018-01-30T08:17:20.674Z,4.23
2018-01-30T08:17:46.152Z,4.32
2018-01-30T08:18:11.632Z,4.42
2018-01-30T08:18:37.158Z,4.35
2018-01-30T08:19:02.610Z,4.41
2018-01-30T08:19:28.128Z,4.42
2018-01-30T08:19:53.608Z,4.32
2018-01-30T08:20:19.102Z,4.35
2018-01-30T08:20:44.575Z,4.38
2018-01-30T08:21:10.066Z,4.45
2018-01-30T08:21:35.566Z,4.41
2018-01-30T08:22:01.043Z,4.41
2018-01-30T08:22:26.496Z,4.5
2018-01-30T08:22:51.988Z,4.45
2018-01-30T08:23:56.595Z,4.49
2018-01-30T08:25:00.188Z,4.56
2018-01-30T08:25:25.702Z,4.52
2018-01-30T08:25:51.155Z,4.58
2018-01-30T08:26:16.657Z,4.52
2018-01-30T08:26:42.143Z,4.56
2018-01-30T08:27:07.625Z,4.5
2018-01-30T08:27:33.101Z,4.5
2018-01-30T08:27:58.589Z,4.55
2018-01-30T08:28:24.122Z,4.53
2018-01-30T08:28:49.612Z,4.59
2018-01-30T08:29:15.089Z,4.59
2018-01-30T08:29:40.601Z,4.55
2018-01-30T08:30:06.122Z,4.62
2018-01-30T08:30:31.612Z,4.63
2018-01-30T08:30:57.066Z,4.6
2018-01-30T08:32:01.670Z,4.67
2018-01-30T08:32:27.219Z,4.7
2018-01-30T08:32:52.704Z,4.63
2018-01-30T08:33:18.186Z,4.59
2018-01-30T08:33:43.661Z,4.66
2018-01-30T08:34:09.152Z,4.63
2018-01-30T08:35:07.670Z,4.58
2018-01-30T08:35:33.217Z,4.58
2018-01-30T08:35:58.929Z,4.71
2018-01-30T08:36:24.424Z,4.67
2018-01-30T08:36:49.977Z,4.71
2018-01-30T08:37:15.452Z,4.58
2018-01-30T08:37:40.934Z,4.67
2018-01-30T08:38:06.448Z,4.74
2018-01-30T08:38:31.940Z,4.66
2018-01-30T08:38:57.535Z,4.67
2018-01-30T08:39:23.017Z,4.71
2018-01-30T08:39:48.568Z,4.71
2018-01-30T08:40:14.066Z,4.77
2018-01-30T08:40:39.563Z,4.77
2018-01-30T08:41:05.053Z,4.77
2018-01-30T08:41:30.522Z,4.74
2018-01-30T08:41:56.062Z,4.7
2018-01-30T08:42:21.528Z,4.68
2018-01-30T08:42:47.004Z,4.73
2018-01-30T08:43:12.478Z,4.7
2018-01-30T08:43:38.004Z,4.71
2018-01-30T08:44:03.484Z,4.84
2018-01-30T08:44:28.965Z,4.78
2018-01-30T08:44:54.458Z,4.71
2018-01-30T08:45:19.949Z,4.77
2018-01-30T08:45:45.497Z,4.7
2018-01-30T08:46:11.027Z,4.8
2018-01-30T08:46:36.487Z,4.75
2018-01-30T08:47:02.011Z,4.77
2018-01-30T08:47:27.501Z,4.82
2018-01-30T08:48:36.160Z,4.9
2018-01-30T08:49:01.660Z,4.92
2018-01-30T08:50:00.152Z,4.97
2018-01-30T08:50:25.662Z,4.97
2018-01-30T08:50:51.134Z,4.99
2018-01-30T08:51:16.609Z,5.05
2018-01-30T08:51:42.105Z,5.1
2018-01-30T08:52:40.619Z,5.05
2018-01-30T08:53:06.146Z,5.1
2018-01-30T08:53:31.640Z,5.14
2018-01-30T08:53:57.082Z,5.25
2018-01-30T08:54:22.582Z,5.15
2018-01-30T08:54:48.106Z,5.2
2018-01-30T08:55:13.637Z,5.25
2018-01-30T08:55:39.145Z,5.21
2018-01-30T08:56:04.633Z,5.2
2018-01-30T08:56:30.225Z,5.21
2018-01-30T08:56:55.720Z,5.2
2018-01-30T08:57:21.189Z,5.28
2018-01-30T08:57:46.731Z,5.28
2018-01-30T08:58:12.214Z,5.23
2018-01-30T08:59:05.623Z,5.26
2018-01-30T08:59:31.114Z,5.21
2018-01-30T08:59:56.591Z,5.23
2018-01-30T09:00:22.063Z,5.28
2018-01-30T09:00:47.527Z,5.25
2018-01-30T09:01:13.012Z,5.25
2018-01-30T09:02:11.514Z,5.28
2018-01-30T09:02:37.003Z,5.3
2018-01-30T09:03:02.537Z,5.33
2018-01-30T09:03:28.016Z,5.25
2018-01-30T09:03:53.516Z,5.28
2018-01-30T09:04:47.707Z,5.36
2018-01-30T09:05:13.198Z,5.38
2018-01-30T09:05:38.667Z,5.35
2018-01-30T09:06:04.130Z,5.35
2018-01-30T09:06:29.608Z,5.39
2018-01-30T09:06:55.116Z,5.43
2018-01-30T09:07:20.569Z,5.41
2018-01-30T09:07:46.057Z,5.32
2018-01-30T09:08:11.512Z,5.46
2018-01-30T09:08:37.029Z,5.3
2018-01-30T09:09:02.506Z,5.39
2018-01-30T09:09:27.923Z,5.47
2018-01-30T09:10:26.448Z,5.44
2018-01-30T09:10:51.953Z,5.39
2018-01-30T09:11:17.451Z,5.48
2018-01-30T09:11:42.922Z,5.41
2018-01-30T09:12:08.409Z,5.51
2018-01-30T09:12:33.882Z,5.33
2018-01-30T09:12:59.352Z,5.36
2018-01-30T09:13:24.852Z,5.46
2018-01-30T09:13:50.310Z,5.51
2018-01-30T09:14:15.816Z,5.47
2018-01-30T09:14:41.294Z,5.44
2018-01-30T09:15:06.820Z,5.46
2018-01-30T09:15:32.328Z,5.44
2018-01-30T09:15:57.801Z,5.36
2018-01-30T09:16:23.244Z,5.44
2018-01-30T09:16:48.706Z,5.43
2018-01-30T09:17:14.167Z,5.44
2018-01-30T09:17:39.649Z,5.36
2018-01-30T09:18:05.089Z,5.5
2018-01-30T09:18:53.399Z,5.36
2018-01-30T09:19:18.908Z,5.41
2018-01-30T09:19:44.387Z,5.39
2018-01-30T09:20:09.866Z,5.36
2018-01-30T09:20:35.388Z,5.33
2018-01-30T09:21:00.884Z,5.33
2018-01-30T09:21:26.370Z,5.33
2018-01-30T09:21:51.841Z,5.28
2018-01-30T09:22:17.331Z,5.23
2018-01-30T09:22:42.805Z,5.39
2018-01-30T09:23:08.383Z,5.33
2018-01-30T09:23:33.875Z,5.28
2018-01-30T09:24:37.461Z,5.28
2018-01-30T09:25:02.962Z,5.26
2018-01-30T09:25:28.450Z,5.26
2018-01-30T09:25:53.933Z,5.33
2018-01-30T09:26:19.420Z,5.26
2018-01-30T09:26:44.944Z,5.39
2018-01-30T09:27:10.431Z,5.36
2018-01-30T09:27:35.883Z,5.38
2018-01-30T09:28:01.410Z,5.38
2018-01-30T09:28:26.916Z,5.3
2018-01-30T09:28:52.456Z,5.36
2018-01-30T09:29:17.967Z,5.33
2018-01-30T09:29:43.495Z,5.35
2018-01-30T09:30:41.963Z,5.36
2018-01-30T09:31:07.446Z,5.38
2018-01-30T09:31:32.931Z,5.41
2018-01-30T09:31:58.438Z,5.39
2018-01-30T09:32:23.925Z,5.35
2018-01-30T09:33:32.627Z,5.46
2018-01-30T09:33:58.145Z,5.44
2018-01-30T09:34:23.641Z,5.36
2018-01-30T09:34:49.134Z,5.33
2018-01-30T09:35:14.630Z,5.41
2018-01-30T09:35:40.161Z,5.39
2018-01-30T09:36:05.661Z,5.51
2018-01-30T09:36:31.138Z,5.47
2018-01-30T09:36:56.657Z,5.48
2018-01-30T09:37:22.139Z,5.48
2018-01-30T09:37:47.599Z,5.41
2018-01-30T09:38:13.100Z,5.48
2018-01-30T09:38:38.614Z,5.46
2018-01-30T09:39:04.143Z,5.59
2018-01-30T09:39:29.632Z,5.56
2018-01-30T09:39:55.141Z,5.56
2018-01-30T09:40:20.648Z,5.59
2018-01-30T09:40:46.139Z,5.54
2018-01-30T09:41:11.642Z,5.54
2018-01-30T09:41:37.119Z,5.64
2018-01-30T09:42:02.613Z,5.53
2018-01-30T09:42:28.066Z,5.56
2018-01-30T09:42:53.561Z,5.69
2018-01-30T09:43:19.040Z,5.71
2018-01-30T09:44:17.554Z,5.68
2018-01-30T09:44:43.030Z,5.73
2018-01-30T09:45:08.537Z,5.76
2018-01-30T09:45:34.017Z,5.75
2018-01-30T09:45:59.468Z,5.72
2018-01-30T09:46:24.968Z,5.76
2018-01-30T09:46:50.446Z,5.8
2018-01-30T09:47:15.979Z,5.79
2018-01-30T09:48:09.408Z,5.83
2018-01-30T09:48:34.896Z,5.82
2018-01-30T09:49:00.374Z,5.84
2018-01-30T09:49:25.901Z,5.84
2018-01-30T09:49:51.431Z,5.89
2018-01-30T09:50:16.920Z,5.82
2018-01-30T09:50:42.392Z,5.86
2018-01-30T09:51:07.900Z,5.84
2018-01-30T09:51:33.364Z,5.82
2018-01-30T09:51:58.851Z,5.84
2018-01-30T09:52:24.329Z,5.9
2018-01-30T09:53:33.034Z,5.89
2018-01-30T09:53:58.526Z,5.9
2018-01-30T09:54:24.027Z,5.87
2018-01-30T09:54:49.528Z,5.87
2018-01-30T09:55:15.001Z,5.9
2018-01-30T09:55:40.469Z,5.89
2018-01-30T09:56:06.013Z,5.9
2018-01-30T09:56:31.465Z,5.89
2018-01-30T09:56:56.963Z,5.86
2018-01-30T09:57:22.445Z,5.93
2018-01-30T09:57:47.936Z,5.87
2018-01-30T09:58:13.399Z,5.84
2018-01-30T09:58:38.934Z,5.98
2018-01-30T09:59:04.435Z,5.97
2018-01-30T09:59:29.939Z,5.84
2018-01-30T09:59:55.431Z,5.9
2018-01-30T10:00:20.898Z,5.94
2018-01-30T10:00:46.407Z,5.87
2018-01-30T10:01:11.915Z,5.84
2018-01-30T10:01:37.400Z,5.86
2018-01-30T10:02:02.942Z,5.83
2018-01-30T10:02:28.429Z,5.82
2018-01-30T10:02:53.910Z,5.83
2018-01-30T10:03:19.412Z,5.86
2018-01-30T10:03:44.904Z,5.9
2018-01-30T10:04:10.442Z,5.86
2018-01-30T10:04:35.931Z,5.87
2018-01-30T10:05:01.429Z,5.87
2018-01-30T10:05:26.883Z,5.9
2018-01-30T10:05:52.395Z,5.89
2018-01-30T10:06:17.884Z,5.89
2018-01-30T10:06:43.391Z,5.89
2018-01-30T10:07:08.880Z,5.87
2018-01-30T10:07:34.391Z,5.98
2018-01-30T10:07:59.889Z,5.91
2018-01-30T10:08:25.363Z,5.99
2018-01-30T10:08:50.890Z,6.01
2018-01-30T10:09:16.376Z,6.01
2018-01-30T10:09:41.853Z,5.98
2018-01-30T10:10:07.366Z,6.02
2018-01-30T10:10:32.882Z,6.07
2018-01-30T10:10:58.418Z,6.09
2018-01-30T10:11:23.910Z,6.12
2018-01-30T10:11:49.416Z,6.05
2018-01-30T10:12:14.944Z,6.19
2018-01-30T10:12:40.491Z,6.16
2018-01-30T10:13:38.950Z,6.2
2018-01-30T10:14:04.468Z,6.16
2018-01-30T10:14:29.930Z,6.17
2018-01-30T10:14:55.398Z,6.3
2018-01-30T10:15:20.867Z,6.24
2018-01-30T10:15:46.305Z,6.22
2018-01-30T10:16:11.782Z,6.22
2018-01-30T10:16:37.262Z,6.28
2018-01-30T10:17:02.753Z,6.3
2018-01-30T10:17:28.229Z,6.33
2018-01-30T10:17:53.681Z,6.33
2018-01-30T10:18:19.171Z,6.46
2018-01-30T10:18:44.718Z,6.48
2018-01-30T10:19:10.206Z,6.46
2018-01-30T10:19:35.685Z,6.44
2018-01-30T10:20:01.195Z,6.51
2018-01-30T10:20:26.686Z,6.52
2018-01-30T10:20:52.193Z,6.57
2018-01-30T10:21:17.662Z,6.63
2018-01-30T10:21:43.157Z,6.57
2018-01-30T10:22:36.576Z,6.56
2018-01-30T10:23:02.057Z,6.67
2018-01-30T10:23:27.551Z,6.6
2018-01-30T10:23:53.042Z,6.66
2018-01-30T10:24:18.497Z,6.62
2018-01-30T10:24:43.989Z,6.72
2018-01-30T10:25:42.494Z,6.69
2018-01-30T10:26:07.985Z,6.78
2018-01-30T10:26:33.497Z,6.75
2018-01-30T10:26:59.024Z,6.74
2018-01-30T10:27:24.492Z,6.77
2018-01-30T10:27:49.980Z,6.79
2018-01-30T10:28:15.456Z,6.79
2018-01-30T10:28:40.968Z,6.81
2018-01-30T10:29:06.449Z,6.85
2018-01-30T10:29:31.942Z,6.78
2018-01-30T10:29:57.460Z,6.87
2018-01-30T10:30:22.920Z,6.89
2018-01-30T10:30:48.409Z,6.82
2018-01-30T10:31:13.910Z,6.89
2018-01-30T10:32:07.365Z,6.87
2018-01-30T10:32:32.851Z,6.88
2018-01-30T10:32:58.348Z,6.96
2018-01-30T10:33:23.847Z,6.95
2018-01-30T10:33:49.360Z,6.95
2018-01-30T10:34:14.855Z,6.89
2018-01-30T10:34:40.356Z,6.96
2018-01-30T10:35:05.878Z,6.92
2018-01-30T10:35:31.362Z,6.95
2018-01-30T10:35:56.895Z,6.93
2018-01-30T10:36:22.407Z,6.93
2018-01-30T10:36:47.882Z,7
2018-01-30T10:37:13.393Z,7
2018-01-30T10:37:38.879Z,6.99
2018-01-30T10:38:04.339Z,7.06
2018-01-30T10:38:29.821Z,7.13
2018-01-30T10:38:55.312Z,7.05
2018-01-30T10:39:20.776Z,7.11
2018-01-30T10:39:46.261Z,7.13
2018-01-30T10:40:11.794Z,7.06
2018-01-30T10:41:20.493Z,7.06
2018-01-30T10:41:46.001Z,7.05
2018-01-30T10:42:11.493Z,7.03
2018-01-30T10:43:20.179Z,7.02
2018-01-30T10:43:45.672Z,7.02
2018-01-30T10:44:11.167Z,6.99
2018-01-30T10:44:36.680Z,7.03
2018-01-30T10:45:02.176Z,7.02
2018-01-30T10:45:27.718Z,6.96
2018-01-30T10:45:53.198Z,6.96
2018-01-30T10:46:18.694Z,6.88
2018-01-30T10:46:44.213Z,6.93
2018-01-30T10:47:09.693Z,6.89
2018-01-30T10:47:35.177Z,6.92
2018-01-30T10:48:00.657Z,6.95
2018-01-30T10:48:26.129Z,6.92
2018-01-30T10:48:51.640Z,6.92
2018-01-30T10:49:17.102Z,6.88
2018-01-30T10:49:42.597Z,6.96
2018-01-30T10:50:08.056Z,6.89
2018-01-30T10:50:33.556Z,6.89
2018-01-30T10:50:59.072Z,6.85
2018-01-30T10:51:24.606Z,6.89
2018-01-30T10:51:50.095Z,6.87
2018-01-30T10:52:38.465Z,6.92
2018-01-30T10:53:47.130Z,6.89
2018-01-30T10:54:12.614Z,6.87
2018-01-30T10:54:38.112Z,6.82
2018-01-30T10:55:03.582Z,6.93
2018-01-30T10:55:29.111Z,6.85
2018-01-30T10:56:27.649Z,6.85
2018-01-30T10:56:53.150Z,6.85
2018-01-30T10:57:18.635Z,6.88
2018-01-30T10:57:44.110Z,6.78
2018-01-30T10:58:09.612Z,6.81
2018-01-30T10:58:35.070Z,6.84
2018-01-30T10:59:00.581Z,6.85
2018-01-30T10:59:26.051Z,6.75
2018-01-30T10:59:51.548Z,6.79
2018-01-30T11:00:17.040Z,6.78
2018-01-30T11:01:25.755Z,6.77
2018-01-30T11:01:51.273Z,6.75
2018-01-30T11:02:16.742Z,6.82
2018-01-30T11:02:42.245Z,6.82
2018-01-30T11:03:07.710Z,6.84
2018-01-30T11:04:11.377Z,6.77
2018-01-30T11:04:36.837Z,6.81
2018-01-30T11:05:02.329Z,6.84
2018-01-30T11:05:27.822Z,6.82
2018-01-30T11:05:53.305Z,6.78
2018-01-30T11:06:18.814Z,6.79
2018-01-30T11:06:44.278Z,6.75
2018-01-30T11:07:09.799Z,6.74
2018-01-30T11:07:35.293Z,6.81
2018-01-30T11:08:38.878Z,6.7
2018-01-30T11:09:04.397Z,6.77
2018-01-30T11:09:29.877Z,6.7
2018-01-30T11:09:55.344Z,6.7
2018-01-30T11:10:20.809Z,6.74
2018-01-30T11:10:46.316Z,6.7
2018-01-30T11:11:11.817Z,6.77
2018-01-30T11:11:37.340Z,6.78
2018-01-30T11:12:40.976Z,6.7
2018-01-30T11:13:06.464Z,6.75
2018-01-30T11:13:31.941Z,6.82